Terminal Aerodrome Forecast
Issued by NWS

Home | Current Version | Previous Version | Text Only | Print | Product List | Glossary On
Versions: 1 2 3 4 5 6 7 8 9 10 11 12 13 14 15 16 17 18 19 20 21 22 23 24 25 26 27 28 29 30 31 32 33 34
000
FTUS46 KSEW 211730
TAFOLM
TAF
KOLM 211730Z 2118/2218 22003KT P6SM FEW017 OVC020
     FM212200 23005KT P6SM BKN035
     FM220500 VRB03KT P6SM OVC050
     FM221000 20004KT P6SM -RA SCT025 OVC050
     FM221200 20004KT 2SM BR BKN007 OVC015=

USA.gov is the U.S. government's official web portal to all federal, state and local government web resources and services.